Time;durP1;ratioP1;P1;durP2;ratioP2;P2;SDS_P1;SDS_P2;PMS_P1;PMS_P2;Temp;Humidity;BMP_temperature;BMP_pressure;BME280_temperature;BME280_humidity;BME280_pressure;Samples;Min_cycle;Max_cycle;Signal;HPM_P1;HPM_P2
2021/06/23 00:00:53;;;;;;;3.30;2.83;;;;;;;;;;5075280;28;20193;-88
2021/06/23 00:03:29;;;;;;;2.22;2.13;;;;;;;;;;5075087;28;20225;-88
2021/06/23 00:06:05;;;;;;;2.60;2.38;;;;;;;;;;5075325;28;20192;-89
2021/06/23 00:08:35;;;;;;;3.85;2.58;;;;;;;;;;5075372;28;20193;-88
2021/06/23 00:11:19;;;;;;;3.92;2.50;;;;;;;;;;5075066;28;20639;-89
2021/06/23 00:14:03;;;;;;;3.53;2.50;;;;;;;;;;5075045;28;20292;-88
2021/06/23 00:16:42;;;;;;;2.60;2.40;;;;;;;;;;5075329;28;20185;-88
2021/06/23 00:22:51;;;;;;;3.45;2.10;;;;;;;;;;5075104;28;20211;-89
2021/06/23 00:25:21;;;;;;;3.38;2.72;;;;;;;;;;5074189;28;20221;-89
2021/06/23 00:28:11;;;;;;;2.85;2.40;;;;;;;;;;5074570;28;20197;-89
2021/06/23 00:31:20;;;;;;;4.10;2.70;;;;;;;;;;5074486;28;20658;-89
2021/06/23 00:34:02;;;;;;;5.43;3.33;;;;;;;;;;5074627;28;20217;-89
2021/06/23 00:36:31;;;;;;;2.78;2.58;;;;;;;;;;5074924;28;20212;-89
2021/06/23 00:39:02;;;;;;;3.55;2.78;;;;;;;;;;5074941;28;20239;-89
2021/06/23 00:41:31;;;;;;;3.17;2.88;;;;;;;;;;5074539;28;20185;-88
2021/06/23 00:44:02;;;;;;;3.50;3.20;;;;;;;;;;5074324;28;20224;-88
2021/06/23 00:46:39;;;;;;;2.95;2.67;;;;;;;;;;5074098;28;20184;-88
2021/06/23 00:49:10;;;;;;;3.42;2.30;;;;;;;;;;5074600;28;20676;-89
2021/06/23 00:52:19;;;;;;;2.65;2.45;;;;;;;;;;5074112;28;20200;-88
2021/06/23 00:55:22;;;;;;;2.60;2.40;;;;;;;;;;5073922;28;20240;-89
2021/06/23 00:58:21;;;;;;;3.53;2.67;;;;;;;;;;5072173;28;20392;-88
2021/06/23 01:01:18;;;;;;;3.03;2.40;;;;;;;;;;5074051;28;20204;-89
2021/06/23 01:04:27;;;;;;;2.58;2.40;;;;;;;;;;5073961;28;20233;-88
2021/06/23 01:07:10;;;;;;;2.45;2.25;;;;;;;;;;5073859;28;20296;-88
2021/06/23 01:09:38;;;;;;;2.50;2.28;;;;;;;;;;5073690;28;20181;-89
2021/06/23 01:12:32;;;;;;;4.50;2.80;;;;;;;;;;5074354;28;20185;-88
2021/06/23 01:15:02;;;;;;;4.47;3.10;;;;;;;;;;5073472;28;20706;-88
2021/06/23 01:17:34;;;;;;;4.25;2.78;;;;;;;;;;5073565;28;20201;-88
2021/06/23 01:20:07;;;;;;;3.70;3.10;;;;;;;;;;5073594;28;20204;-89
2021/06/23 01:22:38;;;;;;;2.85;2.60;;;;;;;;;;5073698;28;20178;-88
2021/06/23 01:26:00;;;;;;;3.22;2.60;;;;;;;;;;5073510;28;20239;-89
2021/06/23 01:28:29;;;;;;;3.28;2.53;;;;;;;;;;5073142;28;20201;-88
2021/06/23 01:31:00;;;;;;;3.05;2.67;;;;;;;;;;5073097;28;20180;-88
2021/06/23 01:33:50;;;;;;;6.38;4.05;;;;;;;;;;5073320;28;20220;-89
2021/06/23 01:36:54;;;;;;;3.10;2.20;;;;;;;;;;5072255;28;20244;-88
2021/06/23 01:39:42;;;;;;;3.83;2.67;;;;;;;;;;5072987;28;20181;-89
2021/06/23 01:42:10;;;;;;;4.63;2.70;;;;;;;;;;5072798;28;20196;-88
2021/06/23 01:44:43;;;;;;;2.88;2.67;;;;;;;;;;5072766;28;20232;-89
2021/06/23 01:47:20;;;;;;;3.75;2.65;;;;;;;;;;5073146;28;20192;-88
2021/06/23 01:49:57;;;;;;;2.95;2.72;;;;;;;;;;5073080;28;20255;-88
2021/06/23 01:52:34;;;;;;;4.07;3.67;;;;;;;;;;5072853;28;20195;-88
2021/06/23 01:55:26;;;;;;;4.50;3.60;;;;;;;;;;5072211;28;20216;-87
2021/06/23 01:58:03;;;;;;;3.35;3.15;;;;;;;;;;5052352;28;20240;-87
2021/06/23 02:00:58;;;;;;;3.92;3.55;;;;;;;;;;5053250;28;20217;-89
2021/06/23 02:04:10;;;;;;;3.83;2.85;;;;;;;;;;5052495;28;20229;-87
2021/06/23 02:06:55;;;;;;;4.63;3.25;;;;;;;;;;5052984;28;20182;-88
2021/06/23 02:09:56;;;;;;;4.20;3.28;;;;;;;;;;5053251;28;20232;-88
2021/06/23 02:13:09;;;;;;;3.00;2.80;;;;;;;;;;5068374;28;20204;-88
2021/06/23 02:15:56;;;;;;;3.95;3.10;;;;;;;;;;5028762;28;20301;-89
2021/06/23 02:18:26;;;;;;;3.92;3.17;;;;;;;;;;5034550;28;20186;-87
2021/06/23 02:21:10;;;;;;;3.97;3.05;;;;;;;;;;5073101;28;20177;-87
2021/06/23 02:24:01;;;;;;;2.80;2.60;;;;;;;;;;5072769;28;20224;-87
2021/06/23 02:26:53;;;;;;;3.42;3.10;;;;;;;;;;5072981;28;20201;-87
2021/06/23 02:29:50;;;;;;;3.00;2.78;;;;;;;;;;5042671;28;20671;-87
2021/06/23 02:32:20;;;;;;;4.90;4.25;;;;;;;;;;5054398;28;20177;-88
2021/06/23 02:34:54;;;;;;;3.83;2.92;;;;;;;;;;5072515;28;20224;-87
2021/06/23 02:37:40;;;;;;;3.97;2.72;;;;;;;;;;5072756;28;20656;-87
2021/06/23 02:40:42;;;;;;;4.55;3.40;;;;;;;;;;5057639;28;20209;-88
2021/06/23 02:43:16;;;;;;;5.57;3.50;;;;;;;;;;5052564;28;20188;-87
2021/06/23 02:46:08;;;;;;;3.50;3.30;;;;;;;;;;5052957;28;20686;-87
2021/06/23 02:48:44;;;;;;;3.75;3.20;;;;;;;;;;5052508;28;20201;-87
2021/06/23 02:51:27;;;;;;;3.50;3.20;;;;;;;;;;5034655;28;20202;-87
2021/06/23 02:54:36;;;;;;;4.03;3.20;;;;;;;;;;5032468;28;20221;-86
2021/06/23 02:57:09;;;;;;;4.55;3.45;;;;;;;;;;5065248;28;20232;-86
2021/06/23 03:00:19;;;;;;;4.72;3.08;;;;;;;;;;5072099;28;20196;-87
2021/06/23 03:02:58;;;;;;;3.65;3.35;;;;;;;;;;5072663;28;20193;-87
2021/06/23 03:05:38;;;;;;;5.18;3.58;;;;;;;;;;5072473;28;20232;-88
2021/06/23 03:08:08;;;;;;;4.53;3.92;;;;;;;;;;5072374;28;20205;-87
2021/06/23 03:10:46;;;;;;;7.30;4.22;;;;;;;;;;5069632;28;20276;-87
2021/06/23 03:13:17;;;;;;;3.25;2.90;;;;;;;;;;5072228;28;20746;-88
2021/06/23 03:15:44;;;;;;;3.83;3.40;;;;;;;;;;5069965;28;20197;-87
2021/06/23 03:18:13;;;;;;;4.05;3.65;;;;;;;;;;5070040;28;20205;-87
2021/06/23 03:20:40;;;;;;;4.05;3.42;;;;;;;;;;5070031;28;20689;-88
2021/06/23 03:23:08;;;;;;;3.88;3.30;;;;;;;;;;5069866;28;20195;-87
2021/06/23 03:25:36;;;;;;;4.03;3.60;;;;;;;;;;5070318;28;20223;-87
2021/06/23 03:28:06;;;;;;;4.63;4.18;;;;;;;;;;5069299;28;20205;-87
2021/06/23 03:30:34;;;;;;;5.75;3.40;;;;;;;;;;5071532;28;20193;-87
2021/06/23 03:33:01;;;;;;;4.80;3.90;;;;;;;;;;5071804;28;20248;-87
2021/06/23 03:35:30;;;;;;;5.05;3.35;;;;;;;;;;5071418;28;20712;-87
2021/06/23 03:37:58;;;;;;;4.68;3.97;;;;;;;;;;5071752;28;20635;-87
2021/06/23 03:40:26;;;;;;;4.18;3.67;;;;;;;;;;5071626;28;20201;-87
2021/06/23 03:42:54;;;;;;;4.15;3.80;;;;;;;;;;5071681;28;20190;-87
2021/06/23 03:45:21;;;;;;;4.90;4.50;;;;;;;;;;5071466;28;20229;-87
2021/06/23 03:47:49;;;;;;;4.22;3.83;;;;;;;;;;5071494;28;20694;-87
2021/06/23 03:50:18;;;;;;;4.10;3.70;;;;;;;;;;5071549;28;20177;-87
2021/06/23 03:52:49;;;;;;;3.95;3.55;;;;;;;;;;5071509;28;20208;-87
2021/06/23 03:55:25;;;;;;;4.35;4.05;;;;;;;;;;5071052;28;20781;-86
2021/06/23 03:57:54;;;;;;;3.85;3.47;;;;;;;;;;5071605;28;20769;-87
2021/06/23 04:00:24;;;;;;;3.92;3.55;;;;;;;;;;5074079;28;20187;-87
2021/06/23 04:02:52;;;;;;;3.85;3.42;;;;;;;;;;5075187;28;20201;-86
2021/06/23 04:05:20;;;;;;;4.75;4.35;;;;;;;;;;5074877;28;20214;-87
2021/06/23 04:07:49;;;;;;;5.13;3.88;;;;;;;;;;5074743;28;20277;-86
2021/06/23 04:10:17;;;;;;;6.60;4.78;;;;;;;;;;5075165;28;20209;-87
2021/06/23 04:12:45;;;;;;;6.55;4.28;;;;;;;;;;5074917;28;20568;-87
2021/06/23 04:15:15;;;;;;;3.83;3.53;;;;;;;;;;5074974;28;20221;-86
2021/06/23 04:17:43;;;;;;;5.35;3.60;;;;;;;;;;5075152;28;20270;-87
2021/06/23 04:20:12;;;;;;;4.20;3.80;;;;;;;;;;5074894;28;20196;-86
2021/06/23 04:22:40;;;;;;;4.40;3.78;;;;;;;;;;5074610;28;20205;-87
2021/06/23 04:25:12;;;;;;;3.28;2.97;;;;;;;;;;5074817;28;20217;-87
2021/06/23 04:27:39;;;;;;;4.65;3.88;;;;;;;;;;5074735;28;20231;-86
2021/06/23 04:30:10;;;;;;;3.95;3.58;;;;;;;;;;5074922;28;20193;-86
2021/06/23 04:32:37;;;;;;;3.53;3.22;;;;;;;;;;5074378;28;20642;-86
2021/06/23 04:35:06;;;;;;;3.67;3.38;;;;;;;;;;5074575;28;20213;-87
2021/06/23 04:37:34;;;;;;;5.85;3.53;;;;;;;;;;5074363;28;20235;-87
2021/06/23 04:40:02;;;;;;;5.25;3.50;;;;;;;;;;5074832;28;20211;-86
2021/06/23 04:42:31;;;;;;;6.22;4.35;;;;;;;;;;5074645;28;20201;-87
2021/06/23 04:44:58;;;;;;;6.93;3.63;;;;;;;;;;5074349;28;20220;-87
2021/06/23 04:47:26;;;;;;;7.53;3.88;;;;;;;;;;5074195;28;20840;-86
2021/06/23 04:49:53;;;;;;;3.30;2.97;;;;;;;;;;5074025;28;20205;-86
2021/06/23 04:52:20;;;;;;;3.50;3.20;;;;;;;;;;5074382;28;20201;-86
2021/06/23 04:54:48;;;;;;;3.67;3.30;;;;;;;;;;5074658;28;20215;-87
2021/06/23 04:57:15;;;;;;;4.53;3.35;;;;;;;;;;5073871;28;20617;-87
2021/06/23 04:59:44;;;;;;;3.72;3.40;;;;;;;;;;5073903;28;20291;-86
2021/06/23 05:02:12;;;;;;;4.57;3.40;;;;;;;;;;5073983;28;20205;-86
2021/06/23 05:04:39;;;;;;;8.45;3.67;;;;;;;;;;5073932;28;20231;-87
2021/06/23 05:07:07;;;;;;;3.60;3.30;;;;;;;;;;5073112;28;20684;-87
2021/06/23 05:09:37;;;;;;;4.28;3.53;;;;;;;;;;5073758;28;20228;-87
2021/06/23 05:12:06;;;;;;;3.65;3.38;;;;;;;;;;5073592;28;20205;-86
2021/06/23 05:14:33;;;;;;;4.25;3.85;;;;;;;;;;5073389;28;20221;-87
2021/06/23 05:17:02;;;;;;;3.92;3.55;;;;;;;;;;5073737;28;20559;-86
2021/06/23 05:19:30;;;;;;;3.42;3.08;;;;;;;;;;5073561;28;20203;-87
2021/06/23 05:22:00;;;;;;;4.28;3.85;;;;;;;;;;5073085;28;20229;-86
2021/06/23 05:24:28;;;;;;;3.95;3.45;;;;;;;;;;5073404;28;20713;-86
2021/06/23 05:26:56;;;;;;;4.15;3.78;;;;;;;;;;5073114;28;20225;-87
2021/06/23 05:29:23;;;;;;;6.10;3.20;;;;;;;;;;5073321;28;20185;-86
2021/06/23 05:31:50;;;;;;;5.05;3.60;;;;;;;;;;5073303;28;20204;-87
2021/06/23 05:34:19;;;;;;;3.67;2.90;;;;;;;;;;5073279;28;20221;-87
2021/06/23 05:36:46;;;;;;;5.60;3.90;;;;;;;;;;5076794;28;20585;-87
2021/06/23 05:39:14;;;;;;;3.88;3.58;;;;;;;;;;5072375;28;20580;-86
2021/06/23 05:41:41;;;;;;;4.40;3.63;;;;;;;;;;5073137;28;20192;-86
2021/06/23 05:44:09;;;;;;;5.72;3.75;;;;;;;;;;5073090;28;20231;-86
2021/06/23 05:46:36;;;;;;;3.75;3.40;;;;;;;;;;5072910;28;20221;-87
2021/06/23 05:49:04;;;;;;;5.93;3.85;;;;;;;;;;5072988;28;20204;-87
2021/06/23 05:51:32;;;;;;;9.38;4.38;;;;;;;;;;5072800;28;20204;-87
2021/06/23 05:54:00;;;;;;;3.40;3.10;;;;;;;;;;5072593;28;20754;-87
2021/06/23 05:56:27;;;;;;;3.50;2.90;;;;;;;;;;5072791;28;20232;-87
2021/06/23 05:58:55;;;;;;;3.10;2.80;;;;;;;;;;5072588;28;20189;-86
2021/06/23 06:01:22;;;;;;;4.35;3.95;;;;;;;;;;5072720;28;20196;-87
2021/06/23 06:03:49;;;;;;;6.28;3.55;;;;;;;;;;5072049;28;20228;-86
2021/06/23 06:06:17;;;;;;;3.80;2.75;;;;;;;;;;5072617;28;20212;-87
2021/06/23 06:08:45;;;;;;;4.65;3.83;;;;;;;;;;5071911;28;20311;-87
2021/06/23 06:11:13;;;;;;;7.05;4.47;;;;;;;;;;5072675;28;20204;-87
2021/06/23 06:13:40;;;;;;;7.80;3.08;;;;;;;;;;5072527;28;20227;-86
2021/06/23 06:16:08;;;;;;;4.70;3.70;;;;;;;;;;5072546;28;20209;-87
2021/06/23 06:18:36;;;;;;;4.28;3.45;;;;;;;;;;5071976;28;20204;-87
2021/06/23 06:21:04;;;;;;;4.15;3.42;;;;;;;;;;5072233;28;20208;-87
2021/06/23 06:23:31;;;;;;;4.95;3.45;;;;;;;;;;5071930;28;20224;-87
2021/06/23 06:26:00;;;;;;;4.22;3.47;;;;;;;;;;5072375;28;20200;-87
2021/06/23 06:28:27;;;;;;;4.00;3.53;;;;;;;;;;5072314;28;20227;-87
2021/06/23 06:30:55;;;;;;;3.80;3.25;;;;;;;;;;5072288;28;20577;-87
2021/06/23 06:33:22;;;;;;;4.63;3.20;;;;;;;;;;5072171;28;20211;-87
2021/06/23 06:35:49;;;;;;;4.18;3.72;;;;;;;;;;5072121;28;20200;-87
2021/06/23 06:38:17;;;;;;;4.35;3.40;;;;;;;;;;5072089;28;20216;-87
2021/06/23 06:40:44;;;;;;;3.45;3.15;;;;;;;;;;5072178;28;20201;-86
2021/06/23 06:43:13;;;;;;;4.05;3.10;;;;;;;;;;5071472;28;20204;-87
2021/06/23 06:45:41;;;;;;;6.57;3.20;;;;;;;;;;5072163;28;20197;-87
2021/06/23 06:48:09;;;;;;;3.00;2.70;;;;;;;;;;5071970;28;20227;-87
2021/06/23 06:50:37;;;;;;;3.83;3.20;;;;;;;;;;5071912;28;20654;-87
2021/06/23 06:53:05;;;;;;;4.68;3.47;;;;;;;;;;5072039;28;20295;-86
2021/06/23 06:55:33;;;;;;;5.05;3.15;;;;;;;;;;5072130;28;20280;-86
2021/06/23 06:58:01;;;;;;;4.53;3.40;;;;;;;;;;5051699;28;20204;-87
2021/06/23 07:00:29;;;;;;;9.45;4.22;;;;;;;;;;5051828;28;20206;-87
2021/06/23 07:02:58;;;;;;;5.15;3.70;;;;;;;;;;5051514;28;20205;-86
2021/06/23 07:05:26;;;;;;;4.80;3.83;;;;;;;;;;5051892;28;20221;-86
2021/06/23 07:07:54;;;;;;;2.28;2.08;;;;;;;;;;5051785;28;20225;-85
2021/06/23 07:10:22;;;;;;;2.22;2.13;;;;;;;;;;5051760;28;20201;-87
2021/06/23 07:12:49;;;;;;;4.20;3.03;;;;;;;;;;5051884;28;20201;-86
2021/06/23 07:15:17;;;;;;;2.95;2.65;;;;;;;;;;5051445;28;20217;-86
2021/06/23 07:17:46;;;;;;;3.38;3.08;;;;;;;;;;5051819;28;20622;-87
2021/06/23 07:20:15;;;;;;;4.45;2.95;;;;;;;;;;5051685;28;20253;-87
2021/06/23 07:22:42;;;;;;;3.35;2.72;;;;;;;;;;5051412;28;20694;-86
2021/06/23 07:25:11;;;;;;;3.88;3.40;;;;;;;;;;5051612;28;20228;-86
2021/06/23 07:27:39;;;;;;;2.60;2.40;;;;;;;;;;5051567;28;20229;-87
2021/06/23 07:30:08;;;;;;;3.20;3.00;;;;;;;;;;5051837;28;20299;-87
2021/06/23 07:32:42;;;;;;;3.75;3.38;;;;;;;;;;5051566;28;20197;-87
2021/06/23 07:37:48;;;;;;;2.95;2.67;;;;;;;;;;5055624;28;20274;-87
2021/06/23 07:40:17;;;;;;;4.25;3.60;;;;;;;;;;5055222;28;20205;-87
2021/06/23 07:42:44;;;;;;;3.85;3.55;;;;;;;;;;5055509;28;20289;-87
2021/06/23 07:45:13;;;;;;;3.55;3.00;;;;;;;;;;5055261;28;20214;-86
2021/06/23 07:47:41;;;;;;;4.78;3.47;;;;;;;;;;5055286;28;20225;-87
2021/06/23 07:50:13;;;;;;;3.25;2.60;;;;;;;;;;5055678;28;20202;-87
2021/06/23 07:52:45;;;;;;;3.67;3.03;;;;;;;;;;5055015;28;20202;-86
2021/06/23 07:55:41;;;;;;;4.05;3.20;;;;;;;;;;5055197;28;20225;-86
2021/06/23 08:09:12;;;;;;;4.90;4.07;;;;;;;;;;4992314;28;20269;-87
2021/06/23 08:11:41;;;;;;;3.78;3.08;;;;;;;;;;4992231;28;20199;-87
2021/06/23 08:14:09;;;;;;;3.25;3.03;;;;;;;;;;4992623;28;20255;-86
2021/06/23 08:16:38;;;;;;;5.93;3.50;;;;;;;;;;4992408;28;20204;-87
2021/06/23 08:19:06;;;;;;;2.92;2.45;;;;;;;;;;4992269;28;20204;-87
2021/06/23 08:21:34;;;;;;;3.88;3.53;;;;;;;;;;4992200;28;20210;-86
2021/06/23 08:24:02;;;;;;;4.55;3.67;;;;;;;;;;4992219;28;20228;-86
2021/06/23 08:26:29;;;;;;;3.42;3.13;;;;;;;;;;4992352;28;20225;-86
2021/06/23 08:28:57;;;;;;;4.03;3.50;;;;;;;;;;4992142;28;20234;-87
2021/06/23 08:31:24;;;;;;;5.25;3.63;;;;;;;;;;4992297;28;20207;-86
2021/06/23 08:33:53;;;;;;;4.03;3.13;;;;;;;;;;4992011;28;20242;-86
2021/06/23 08:36:21;;;;;;;3.85;3.42;;;;;;;;;;4992234;28;20265;-86
2021/06/23 08:38:50;;;;;;;6.28;3.92;;;;;;;;;;4991903;28;20208;-86
2021/06/23 08:41:18;;;;;;;4.25;3.58;;;;;;;;;;4992139;28;20574;-86
2021/06/23 08:43:45;;;;;;;3.58;3.17;;;;;;;;;;4991754;28;20228;-86
2021/06/23 08:46:13;;;;;;;3.88;3.40;;;;;;;;;;4991597;28;20215;-87
2021/06/23 08:48:40;;;;;;;4.65;3.60;;;;;;;;;;4991657;28;20246;-86
2021/06/23 08:51:09;;;;;;;4.40;3.88;;;;;;;;;;4991766;28;20223;-87
2021/06/23 08:53:36;;;;;;;4.70;3.72;;;;;;;;;;4992007;28;20230;-86
2021/06/23 08:56:07;;;;;;;5.43;3.22;;;;;;;;;;4991686;28;20255;-85
2021/06/23 08:58:35;;;;;;;4.45;4.05;;;;;;;;;;4991719;28;20204;-86
2021/06/23 09:01:03;;;;;;;4.10;3.30;;;;;;;;;;4991699;28;20208;-86
2021/06/23 09:03:31;;;;;;;3.83;2.85;;;;;;;;;;4991407;28;20244;-87
2021/06/23 09:06:00;;;;;;;4.03;3.22;;;;;;;;;;4991468;28;20200;-86
2021/06/23 09:08:34;;;;;;;5.97;3.72;;;;;;;;;;4991501;28;20273;-87
2021/06/23 09:11:04;;;;;;;3.67;3.33;;;;;;;;;;4991420;28;20260;-87
2021/06/23 09:13:32;;;;;;;3.85;3.17;;;;;;;;;;4991384;28;20227;-86
2021/06/23 09:16:02;;;;;;;4.10;3.28;;;;;;;;;;4991262;28;20206;-87
2021/06/23 09:18:32;;;;;;;4.85;3.20;;;;;;;;;;4991559;28;20213;-87
2021/06/23 09:21:02;;;;;;;4.20;3.33;;;;;;;;;;4991383;28;20572;-87
2021/06/23 09:23:44;;;;;;;6.43;3.33;;;;;;;;;;4991070;28;20223;-86
2021/06/23 09:26:17;;;;;;;3.70;3.40;;;;;;;;;;4991251;28;20704;-87
2021/06/23 09:28:46;;;;;;;3.03;2.83;;;;;;;;;;4990946;28;20612;-86
2021/06/23 09:31:14;;;;;;;2.70;2.50;;;;;;;;;;4991524;28;20208;-86
2021/06/23 09:33:41;;;;;;;2.58;2.25;;;;;;;;;;4991297;28;20228;-86
2021/06/23 09:36:12;;;;;;;3.35;3.05;;;;;;;;;;4991099;28;20204;-87
2021/06/23 09:38:45;;;;;;;3.53;3.15;;;;;;;;;;4991144;28;20629;-86
2021/06/23 09:41:27;;;;;;;3.22;2.92;;;;;;;;;;4990821;28;20208;-87
2021/06/23 09:43:58;;;;;;;3.78;3.30;;;;;;;;;;4991015;28;20227;-86
2021/06/23 09:46:28;;;;;;;4.10;3.67;;;;;;;;;;4990958;28;20204;-87
2021/06/23 09:49:09;;;;;;;3.88;3.58;;;;;;;;;;4990810;28;20227;-87
2021/06/23 09:51:42;;;;;;;4.40;3.95;;;;;;;;;;4990627;28;20203;-86
2021/06/23 09:54:10;;;;;;;2.97;2.67;;;;;;;;;;4990849;28;20227;-86
2021/06/23 09:56:43;;;;;;;2.35;2.15;;;;;;;;;;4990192;28;20330;-86
2021/06/23 09:59:18;;;;;;;2.75;2.55;;;;;;;;;;4990669;28;20563;-87
2021/06/23 10:01:46;;;;;;;3.20;2.90;;;;;;;;;;4990482;28;20688;-87
2021/06/23 10:04:13;;;;;;;3.80;3.35;;;;;;;;;;4990496;28;20235;-86
2021/06/23 10:06:45;;;;;;;4.38;3.22;;;;;;;;;;4990882;28;20204;-87
2021/06/23 10:09:22;;;;;;;6.53;4.00;;;;;;;;;;4990611;28;20234;-87
2021/06/23 10:11:54;;;;;;;3.40;3.10;;;;;;;;;;4990746;28;20479;-86
2021/06/23 10:14:24;;;;;;;3.33;3.03;;;;;;;;;;4990632;28;20224;-86
2021/06/23 10:16:53;;;;;;;3.88;3.50;;;;;;;;;;4990456;28;20669;-87
2021/06/23 10:19:21;;;;;;;3.72;3.22;;;;;;;;;;4990457;28;20204;-86
2021/06/23 10:21:49;;;;;;;3.17;2.90;;;;;;;;;;4990536;28;20195;-87
2021/06/23 10:24:18;;;;;;;4.13;3.45;;;;;;;;;;4990378;28;20238;-86
2021/06/23 10:26:51;;;;;;;3.05;2.78;;;;;;;;;;4990334;28;20290;-86
2021/06/23 10:29:25;;;;;;;3.25;2.45;;;;;;;;;;4990096;28;20223;-86
2021/06/23 10:31:54;;;;;;;3.90;3.60;;;;;;;;;;4990416;28;20203;-86
2021/06/23 10:34:25;;;;;;;3.03;2.60;;;;;;;;;;4990252;28;20227;-86
2021/06/23 10:36:52;;;;;;;3.67;3.38;;;;;;;;;;4990229;28;20208;-86
2021/06/23 10:39:22;;;;;;;4.63;3.75;;;;;;;;;;4990646;28;20204;-87
2021/06/23 10:41:53;;;;;;;3.25;2.92;;;;;;;;;;4990086;28;20193;-87
2021/06/23 10:44:26;;;;;;;3.65;2.78;;;;;;;;;;4990025;28;20227;-86
2021/06/23 10:46:56;;;;;;;3.55;2.67;;;;;;;;;;4990030;28;20211;-87
2021/06/23 10:49:46;;;;;;;2.78;2.58;;;;;;;;;;4989989;28;20203;-87
2021/06/23 10:52:42;;;;;;;3.20;2.88;;;;;;;;;;4990324;28;20207;-86
2021/06/23 10:55:42;;;;;;;3.45;3.15;;;;;;;;;;4990853;28;20306;-86
2021/06/23 10:58:12;;;;;;;4.85;3.25;;;;;;;;;;4989957;28;20231;-86
2021/06/23 11:00:44;;;;;;;5.00;4.32;;;;;;;;;;4990164;28;20226;-86
2021/06/23 11:03:14;;;;;;;4.03;3.72;;;;;;;;;;4989950;28;20260;-86
2021/06/23 11:05:51;;;;;;;3.03;2.70;;;;;;;;;;4989936;28;20203;-86
2021/06/23 11:08:33;;;;;;;4.10;3.70;;;;;;;;;;4990311;28;20687;-86
2021/06/23 11:11:06;;;;;;;5.43;2.80;;;;;;;;;;4993453;28;20258;-86
2021/06/23 11:13:36;;;;;;;3.53;3.15;;;;;;;;;;4993348;28;20219;-86
2021/06/23 11:16:05;;;;;;;3.30;2.53;;;;;;;;;;4993368;28;20596;-86
2021/06/23 11:18:38;;;;;;;3.95;3.65;;;;;;;;;;4993355;28;20210;-86
2021/06/23 11:21:17;;;;;;;3.58;3.28;;;;;;;;;;4992993;28;20208;-86
2021/06/23 11:23:59;;;;;;;3.25;3.00;;;;;;;;;;4993140;28;20226;-85
2021/06/23 11:26:53;;;;;;;3.72;3.42;;;;;;;;;;4993127;28;20203;-86
2021/06/23 11:29:28;;;;;;;4.72;4.03;;;;;;;;;;4992907;28;20290;-86
2021/06/23 11:32:02;;;;;;;5.10;3.88;;;;;;;;;;4993303;28;20199;-86
2021/06/23 11:34:57;;;;;;;3.63;3.33;;;;;;;;;;4992961;28;20620;-86
2021/06/23 11:37:31;;;;;;;3.47;2.80;;;;;;;;;;4993012;28;20200;-86
2021/06/23 11:40:20;;;;;;;3.47;3.17;;;;;;;;;;4992778;28;20206;-86
2021/06/23 11:42:48;;;;;;;4.10;3.60;;;;;;;;;;4992971;28;20662;-85
2021/06/23 11:45:20;;;;;;;7.38;3.10;;;;;;;;;;4992725;28;20247;-85
2021/06/23 11:47:48;;;;;;;6.53;3.58;;;;;;;;;;4992838;28;20204;-86
2021/06/23 11:50:16;;;;;;;5.18;3.90;;;;;;;;;;4992596;28;20227;-86
2021/06/23 11:52:43;;;;;;;3.90;3.10;;;;;;;;;;4992880;28;20241;-86
2021/06/23 11:55:23;;;;;;;6.70;3.70;;;;;;;;;;4992163;28;20224;-86
2021/06/23 11:57:53;;;;;;;4.63;4.20;;;;;;;;;;4992373;28;20240;-86
2021/06/23 12:00:23;;;;;;;3.75;3.40;;;;;;;;;;4992581;28;20223;-86
2021/06/23 12:02:51;;;;;;;4.78;3.05;;;;;;;;;;4992376;28;20204;-86
2021/06/23 12:05:19;;;;;;;4.85;4.13;;;;;;;;;;4992923;28;20228;-86
2021/06/23 12:07:46;;;;;;;4.85;3.80;;;;;;;;;;4992580;28;20206;-86
2021/06/23 12:10:15;;;;;;;3.83;3.50;;;;;;;;;;4992496;28;20227;-86
2021/06/23 12:12:42;;;;;;;4.03;3.70;;;;;;;;;;4992448;28;20265;-85
2021/06/23 12:15:12;;;;;;;4.10;3.70;;;;;;;;;;4992330;28;20228;-86
2021/06/23 12:17:41;;;;;;;6.18;3.53;;;;;;;;;;4992505;28;20208;-85
2021/06/23 12:20:11;;;;;;;4.90;3.63;;;;;;;;;;4991668;28;20212;-87
2021/06/23 12:22:39;;;;;;;6.65;5.80;;;;;;;;;;4992369;28;20587;-85
2021/06/23 12:25:09;;;;;;;5.57;3.15;;;;;;;;;;4992194;28;20222;-86
2021/06/23 12:27:37;;;;;;;3.50;3.20;;;;;;;;;;4992069;28;20192;-86
2021/06/23 12:30:08;;;;;;;3.85;3.03;;;;;;;;;;4992009;28;20211;-85
2021/06/23 12:32:36;;;;;;;4.35;3.95;;;;;;;;;;4992506;28;20211;-86
2021/06/23 12:35:06;;;;;;;3.53;3.22;;;;;;;;;;4991940;28;20227;-86
2021/06/23 12:37:34;;;;;;;4.03;3.63;;;;;;;;;;4992032;28;20204;-86
2021/06/23 12:40:02;;;;;;;3.70;3.40;;;;;;;;;;4992377;28;20250;-86
2021/06/23 12:42:29;;;;;;;3.35;3.00;;;;;;;;;;4991656;28;20666;-86
2021/06/23 12:44:57;;;;;;;2.97;2.78;;;;;;;;;;4991478;28;20224;-86
2021/06/23 12:47:25;;;;;;;3.45;3.15;;;;;;;;;;4991791;28;20203;-86
2021/06/23 12:49:52;;;;;;;3.92;3.50;;;;;;;;;;4991879;28;20207;-86
2021/06/23 12:52:21;;;;;;;3.10;2.90;;;;;;;;;;4992082;28;20231;-86
2021/06/23 12:54:48;;;;;;;4.40;3.33;;;;;;;;;;4991615;28;20226;-86
2021/06/23 12:57:16;;;;;;;3.05;2.85;;;;;;;;;;4991470;28;20242;-85
2021/06/23 12:59:44;;;;;;;3.95;3.45;;;;;;;;;;4991611;28;20208;-86
2021/06/23 13:02:11;;;;;;;3.70;3.40;;;;;;;;;;4991775;28;20697;-86
2021/06/23 13:04:39;;;;;;;3.05;2.78;;;;;;;;;;4991695;28;20220;-86
2021/06/23 13:07:06;;;;;;;3.13;2.92;;;;;;;;;;4991711;28;20211;-86
2021/06/23 13:09:35;;;;;;;3.67;3.42;;;;;;;;;;4991406;28;20200;-86
2021/06/23 13:12:02;;;;;;;3.72;3.38;;;;;;;;;;4991464;28;20228;-86
2021/06/23 13:14:30;;;;;;;3.38;2.72;;;;;;;;;;4991456;28;20235;-86
2021/06/23 13:16:57;;;;;;;6.03;3.20;;;;;;;;;;4991552;28;20212;-86
2021/06/23 13:19:25;;;;;;;4.43;4.00;;;;;;;;;;4991525;28;20209;-86
2021/06/23 13:21:52;;;;;;;4.00;3.20;;;;;;;;;;4991337;28;20207;-85
2021/06/23 13:24:20;;;;;;;3.58;3.10;;;;;;;;;;4991028;28;20227;-86
2021/06/23 13:26:48;;;;;;;4.20;3.80;;;;;;;;;;4990963;28;20588;-86
2021/06/23 13:29:16;;;;;;;4.28;3.90;;;;;;;;;;4991338;28;20302;-86
2021/06/23 13:31:43;;;;;;;3.15;2.78;;;;;;;;;;4990165;28;20232;-86
2021/06/23 13:34:10;;;;;;;3.60;3.25;;;;;;;;;;4990926;28;20212;-86
2021/06/23 13:36:38;;;;;;;4.38;3.50;;;;;;;;;;4990450;28;20207;-86
2021/06/23 13:39:06;;;;;;;3.40;3.05;;;;;;;;;;4991486;28;20290;-86
2021/06/23 13:41:34;;;;;;;4.47;3.45;;;;;;;;;;4991379;28;20258;-86
2021/06/23 13:44:03;;;;;;;3.35;3.13;;;;;;;;;;4990820;28;20224;-86
2021/06/23 13:46:30;;;;;;;4.43;3.95;;;;;;;;;;4991025;28;20294;-86
2021/06/23 13:48:57;;;;;;;4.22;3.33;;;;;;;;;;4991099;28;20203;-85
2021/06/23 13:51:25;;;;;;;4.20;3.70;;;;;;;;;;4990909;28;20239;-86
2021/06/23 13:53:52;;;;;;;3.45;3.15;;;;;;;;;;4991181;28;20591;-86
2021/06/23 13:56:20;;;;;;;3.55;3.28;;;;;;;;;;4990681;28;20224;-86
2021/06/23 13:58:48;;;;;;;3.10;2.90;;;;;;;;;;4990917;28;20203;-86
2021/06/23 14:01:17;;;;;;;6.68;3.50;;;;;;;;;;4991051;28;20219;-85
2021/06/23 14:03:44;;;;;;;4.35;2.90;;;;;;;;;;4990664;28;20224;-86
2021/06/23 14:06:11;;;;;;;4.10;3.78;;;;;;;;;;4991064;28;20207;-86
2021/06/23 14:08:39;;;;;;;3.58;3.10;;;;;;;;;;4990713;28;20201;-86
2021/06/23 14:11:06;;;;;;;4.45;3.20;;;;;;;;;;4990612;28;20208;-86
2021/06/23 14:13:34;;;;;;;3.30;2.85;;;;;;;;;;4990605;28;20228;-86
2021/06/23 14:16:01;;;;;;;4.90;3.85;;;;;;;;;;4990633;28;20629;-86
2021/06/23 14:18:32;;;;;;;4.88;4.38;;;;;;;;;;4990809;28;20204;-86
2021/06/23 14:21:00;;;;;;;7.18;4.57;;;;;;;;;;4990823;28;20214;-86
2021/06/23 14:23:28;;;;;;;3.80;3.50;;;;;;;;;;4985559;28;20231;-85
2021/06/23 14:25:55;;;;;;;3.55;3.13;;;;;;;;;;4968003;28;20199;-86
2021/06/23 14:28:23;;;;;;;3.30;3.05;;;;;;;;;;4969739;28;20201;-85
2021/06/23 14:30:50;;;;;;;4.13;3.40;;;;;;;;;;4970773;28;20204;-86
2021/06/23 14:33:18;;;;;;;4.75;4.13;;;;;;;;;;4968830;28;20228;-86
2021/06/23 14:36:02;;;;;;;5.55;3.60;;;;;;;;;;4971534;28;20207;-86
2021/06/23 14:38:29;;;;;;;4.13;3.40;;;;;;;;;;4967674;28;20609;-86
2021/06/23 14:40:57;;;;;;;4.85;3.95;;;;;;;;;;4971357;28;20193;-85
2021/06/23 14:43:30;;;;;;;4.22;3.92;;;;;;;;;;4971653;28;20211;-85
2021/06/23 14:45:58;;;;;;;4.70;4.30;;;;;;;;;;4970919;28;20201;-86
2021/06/23 14:48:26;;;;;;;3.47;3.17;;;;;;;;;;4972340;28;20204;-86
2021/06/23 14:50:53;;;;;;;5.20;4.70;;;;;;;;;;4969173;28;20200;-85
2021/06/23 14:53:22;;;;;;;4.15;3.40;;;;;;;;;;4971516;28;20224;-86
2021/06/23 14:55:50;;;;;;;5.25;3.55;;;;;;;;;;4971053;28;20268;-86
2021/06/23 14:58:17;;;;;;;6.50;4.25;;;;;;;;;;4951842;28;20193;-85
2021/06/23 15:00:45;;;;;;;6.40;3.90;;;;;;;;;;4963511;28;20678;-86
2021/06/23 15:03:12;;;;;;;4.93;4.15;;;;;;;;;;4952330;28;20190;-86
2021/06/23 15:05:40;;;;;;;5.15;3.50;;;;;;;;;;4951919;28;20198;-86
2021/06/23 15:08:08;;;;;;;3.38;3.08;;;;;;;;;;4951366;29;20288;-86
2021/06/23 15:10:37;;;;;;;3.00;2.75;;;;;;;;;;4948903;28;20189;-86
2021/06/23 15:13:04;;;;;;;3.22;3.03;;;;;;;;;;4948667;28;20209;-86
2021/06/23 15:15:32;;;;;;;3.25;2.97;;;;;;;;;;4951002;29;20197;-85
2021/06/23 15:18:00;;;;;;;3.10;2.78;;;;;;;;;;4970063;28;20196;-86
2021/06/23 15:20:28;;;;;;;3.42;3.13;;;;;;;;;;4970528;28;20205;-86
2021/06/23 15:22:55;;;;;;;3.20;3.00;;;;;;;;;;4970672;28;20272;-86
2021/06/23 15:25:23;;;;;;;3.17;2.88;;;;;;;;;;4970723;28;20769;-86
2021/06/23 15:27:52;;;;;;;3.80;3.50;;;;;;;;;;4970932;28;20197;-85
2021/06/23 15:30:21;;;;;;;4.07;3.78;;;;;;;;;;4970432;28;20187;-86